sensor_id;sensor_type;location;lat;lon;timestamp;P1;durP1;ratioP1;P2;durP2;ratioP2
79052;SDS011;68451;49.510;6.026;2023-07-20T00:00:29;5.93;;;3.47;;
79052;SDS011;68451;49.510;6.026;2023-07-20T00:02:57;7.57;;;3.22;;
79052;SDS011;68451;49.510;6.026;2023-07-20T00:05:35;4.72;;;3.15;;
79052;SDS011;68451;49.510;6.026;2023-07-20T00:08:00;7.10;;;4.07;;
79052;SDS011;68451;49.510;6.026;2023-07-20T00:10:26;4.75;;;3.17;;
79052;SDS011;68451;49.510;6.026;2023-07-20T00:12:51;6.28;;;3.13;;
79052;SDS011;68451;49.510;6.026;2023-07-20T00:15:16;7.25;;;3.50;;
79052;SDS011;68451;49.510;6.026;2023-07-20T00:17:42;5.95;;;3.40;;
79052;SDS011;68451;49.510;6.026;2023-07-20T00:20:10;5.35;;;3.42;;
79052;SDS011;68451;49.510;6.026;2023-07-20T00:22:36;5.28;;;3.00;;
79052;SDS011;68451;49.510;6.026;2023-07-20T00:25:02;7.10;;;3.72;;
79052;SDS011;68451;49.510;6.026;2023-07-20T00:27:27;5.95;;;4.00;;
79052;SDS011;68451;49.510;6.026;2023-07-20T00:29:53;4.78;;;2.63;;
79052;SDS011;68451;49.510;6.026;2023-07-20T00:32:18;4.65;;;2.60;;
79052;SDS011;68451;49.510;6.026;2023-07-20T00:34:44;6.03;;;3.13;;
79052;SDS011;68451;49.510;6.026;2023-07-20T00:37:09;5.80;;;2.92;;
79052;SDS011;68451;49.510;6.026;2023-07-20T00:39:35;4.72;;;2.85;;
79052;SDS011;68451;49.510;6.026;2023-07-20T00:42:00;4.93;;;3.05;;
79052;SDS011;68451;49.510;6.026;2023-07-20T00:44:26;6.20;;;2.95;;
79052;SDS011;68451;49.510;6.026;2023-07-20T00:46:51;6.28;;;2.85;;
79052;SDS011;68451;49.510;6.026;2023-07-20T00:49:17;6.40;;;2.90;;
79052;SDS011;68451;49.510;6.026;2023-07-20T00:51:46;3.90;;;2.78;;
79052;SDS011;68451;49.510;6.026;2023-07-20T00:54:12;3.83;;;2.63;;
79052;SDS011;68451;49.510;6.026;2023-07-20T00:56:38;4.25;;;2.63;;
79052;SDS011;68451;49.510;6.026;2023-07-20T00:59:04;4.47;;;2.60;;
79052;SDS011;68451;49.510;6.026;2023-07-20T01:01:30;5.65;;;2.80;;
79052;SDS011;68451;49.510;6.026;2023-07-20T01:03:55;4.65;;;2.50;;
79052;SDS011;68451;49.510;6.026;2023-07-20T01:06:42;9.10;;;2.80;;
79052;SDS011;68451;49.510;6.026;2023-07-20T01:09:13;4.40;;;2.55;;
79052;SDS011;68451;49.510;6.026;2023-07-20T01:11:52;4.70;;;2.72;;
79052;SDS011;68451;49.510;6.026;2023-07-20T01:14:28;4.93;;;2.58;;
79052;SDS011;68451;49.510;6.026;2023-07-20T01:16:55;5.63;;;2.80;;
79052;SDS011;68451;49.510;6.026;2023-07-20T01:19:20;7.65;;;2.85;;
79052;SDS011;68451;49.510;6.026;2023-07-20T01:21:56;4.35;;;2.67;;
79052;SDS011;68451;49.510;6.026;2023-07-20T01:24:32;6.93;;;3.03;;
79052;SDS011;68451;49.510;6.026;2023-07-20T01:30:12;4.38;;;2.63;;
79052;SDS011;68451;49.510;6.026;2023-07-20T01:32:53;7.20;;;2.60;;
79052;SDS011;68451;49.510;6.026;2023-07-20T01:35:21;6.05;;;3.15;;
79052;SDS011;68451;49.510;6.026;2023-07-20T01:37:50;5.07;;;3.10;;
79052;SDS011;68451;49.510;6.026;2023-07-20T01:40:16;3.95;;;2.72;;
79052;SDS011;68451;49.510;6.026;2023-07-20T01:42:45;5.28;;;2.67;;
79052;SDS011;68451;49.510;6.026;2023-07-20T01:45:12;5.55;;;3.22;;
79052;SDS011;68451;49.510;6.026;2023-07-20T01:47:38;6.68;;;3.00;;
79052;SDS011;68451;49.510;6.026;2023-07-20T01:50:03;5.80;;;3.08;;
79052;SDS011;68451;49.510;6.026;2023-07-20T01:52:30;4.25;;;2.58;;
79052;SDS011;68451;49.510;6.026;2023-07-20T01:54:55;6.22;;;3.55;;
79052;SDS011;68451;49.510;6.026;2023-07-20T01:57:20;7.55;;;2.88;;
79052;SDS011;68451;49.510;6.026;2023-07-20T01:59:46;5.43;;;3.10;;
79052;SDS011;68451;49.510;6.026;2023-07-20T02:02:11;5.68;;;2.80;;
79052;SDS011;68451;49.510;6.026;2023-07-20T02:04:37;6.50;;;2.97;;
79052;SDS011;68451;49.510;6.026;2023-07-20T02:07:02;5.10;;;3.13;;
79052;SDS011;68451;49.510;6.026;2023-07-20T02:09:28;3.58;;;2.58;;
79052;SDS011;68451;49.510;6.026;2023-07-20T02:11:55;4.53;;;2.72;;
79052;SDS011;68451;49.510;6.026;2023-07-20T02:14:20;4.75;;;3.08;;
79052;SDS011;68451;49.510;6.026;2023-07-20T02:16:47;4.70;;;2.90;;
79052;SDS011;68451;49.510;6.026;2023-07-20T02:19:17;6.43;;;3.25;;
79052;SDS011;68451;49.510;6.026;2023-07-20T02:21:42;11.20;;;5.32;;
79052;SDS011;68451;49.510;6.026;2023-07-20T02:24:08;6.80;;;3.45;;
79052;SDS011;68451;49.510;6.026;2023-07-20T02:26:33;6.75;;;3.13;;
79052;SDS011;68451;49.510;6.026;2023-07-20T02:28:59;5.75;;;2.92;;
79052;SDS011;68451;49.510;6.026;2023-07-20T02:31:24;5.60;;;2.50;;
79052;SDS011;68451;49.510;6.026;2023-07-20T02:33:49;6.28;;;2.50;;
79052;SDS011;68451;49.510;6.026;2023-07-20T02:36:15;5.90;;;3.08;;
79052;SDS011;68451;49.510;6.026;2023-07-20T02:38:42;4.57;;;2.45;;
79052;SDS011;68451;49.510;6.026;2023-07-20T02:41:07;4.40;;;2.13;;
79052;SDS011;68451;49.510;6.026;2023-07-20T02:43:33;4.40;;;2.30;;
79052;SDS011;68451;49.510;6.026;2023-07-20T02:45:58;7.60;;;2.75;;
79052;SDS011;68451;49.510;6.026;2023-07-20T02:48:24;6.63;;;2.90;;
79052;SDS011;68451;49.510;6.026;2023-07-20T02:50:49;5.57;;;2.75;;
79052;SDS011;68451;49.510;6.026;2023-07-20T02:53:15;7.60;;;3.45;;
79052;SDS011;68451;49.510;6.026;2023-07-20T02:55:40;7.88;;;2.97;;
79052;SDS011;68451;49.510;6.026;2023-07-20T02:58:06;5.65;;;3.33;;
79052;SDS011;68451;49.510;6.026;2023-07-20T03:00:32;4.88;;;2.70;;
79052;SDS011;68451;49.510;6.026;2023-07-20T03:02:58;13.32;;;5.13;;
79052;SDS011;68451;49.510;6.026;2023-07-20T03:05:23;11.55;;;4.65;;
79052;SDS011;68451;49.510;6.026;2023-07-20T03:07:53;6.18;;;3.72;;
79052;SDS011;68451;49.510;6.026;2023-07-20T03:10:18;6.28;;;3.80;;
79052;SDS011;68451;49.510;6.026;2023-07-20T03:12:44;4.43;;;2.55;;
79052;SDS011;68451;49.510;6.026;2023-07-20T03:15:09;8.02;;;2.97;;
79052;SDS011;68451;49.510;6.026;2023-07-20T03:17:35;6.03;;;3.80;;
79052;SDS011;68451;49.510;6.026;2023-07-20T03:20:00;7.78;;;3.78;;
79052;SDS011;68451;49.510;6.026;2023-07-20T03:22:26;5.68;;;3.25;;
79052;SDS011;68451;49.510;6.026;2023-07-20T03:24:52;10.15;;;3.85;;
79052;SDS011;68451;49.510;6.026;2023-07-20T03:27:18;5.00;;;3.78;;
79052;SDS011;68451;49.510;6.026;2023-07-20T03:29:44;5.75;;;3.30;;
79052;SDS011;68451;49.510;6.026;2023-07-20T03:32:09;6.15;;;4.28;;
79052;SDS011;68451;49.510;6.026;2023-07-20T03:34:35;4.53;;;3.00;;
79052;SDS011;68451;49.510;6.026;2023-07-20T03:37:01;5.93;;;3.20;;
79052;SDS011;68451;49.510;6.026;2023-07-20T03:39:29;11.02;;;3.42;;
79052;SDS011;68451;49.510;6.026;2023-07-20T03:41:55;4.28;;;2.80;;
79052;SDS011;68451;49.510;6.026;2023-07-20T03:44:20;6.32;;;3.38;;
79052;SDS011;68451;49.510;6.026;2023-07-20T03:46:45;4.80;;;2.90;;
79052;SDS011;68451;49.510;6.026;2023-07-20T03:49:11;5.82;;;3.17;;
79052;SDS011;68451;49.510;6.026;2023-07-20T03:51:36;6.72;;;3.47;;
79052;SDS011;68451;49.510;6.026;2023-07-20T03:54:02;6.55;;;3.40;;
79052;SDS011;68451;49.510;6.026;2023-07-20T03:56:27;6.05;;;3.55;;
79052;SDS011;68451;49.510;6.026;2023-07-20T03:58:53;8.43;;;4.13;;
79052;SDS011;68451;49.510;6.026;2023-07-20T04:01:19;5.88;;;3.63;;
79052;SDS011;68451;49.510;6.026;2023-07-20T04:03:44;8.35;;;4.80;;
79052;SDS011;68451;49.510;6.026;2023-07-20T04:06:09;6.15;;;3.13;;
79052;SDS011;68451;49.510;6.026;2023-07-20T04:08:35;5.57;;;3.60;;
79052;SDS011;68451;49.510;6.026;2023-07-20T04:11:02;5.90;;;3.95;;
79052;SDS011;68451;49.510;6.026;2023-07-20T04:13:28;5.80;;;3.83;;
79052;SDS011;68451;49.510;6.026;2023-07-20T04:15:53;8.63;;;5.30;;
79052;SDS011;68451;49.510;6.026;2023-07-20T04:18:20;5.70;;;4.30;;
79052;SDS011;68451;49.510;6.026;2023-07-20T04:20:45;6.32;;;3.90;;
79052;SDS011;68451;49.510;6.026;2023-07-20T04:23:11;9.18;;;4.00;;
79052;SDS011;68451;49.510;6.026;2023-07-20T04:25:38;9.52;;;4.05;;
79052;SDS011;68451;49.510;6.026;2023-07-20T04:28:05;5.40;;;3.55;;
79052;SDS011;68451;49.510;6.026;2023-07-20T04:30:35;6.75;;;3.65;;
79052;SDS011;68451;49.510;6.026;2023-07-20T04:33:02;8.77;;;4.07;;
79052;SDS011;68451;49.510;6.026;2023-07-20T04:38:16;8.20;;;3.45;;
79052;SDS011;68451;49.510;6.026;2023-07-20T04:40:46;5.97;;;3.58;;
79052;SDS011;68451;49.510;6.026;2023-07-20T04:43:13;9.57;;;3.72;;
79052;SDS011;68451;49.510;6.026;2023-07-20T04:45:39;9.55;;;3.92;;
79052;SDS011;68451;49.510;6.026;2023-07-20T04:48:06;16.65;;;4.30;;
79052;SDS011;68451;49.510;6.026;2023-07-20T04:50:35;6.25;;;3.20;;
79052;SDS011;68451;49.510;6.026;2023-07-20T04:53:01;6.65;;;3.85;;
79052;SDS011;68451;49.510;6.026;2023-07-20T04:55:27;7.03;;;3.53;;
79052;SDS011;68451;49.510;6.026;2023-07-20T04:57:53;9.32;;;3.35;;
79052;SDS011;68451;49.510;6.026;2023-07-20T05:00:18;7.53;;;3.35;;
79052;SDS011;68451;49.510;6.026;2023-07-20T05:05:29;6.75;;;3.47;;
79052;SDS011;68451;49.510;6.026;2023-07-20T05:07:55;7.95;;;3.80;;
79052;SDS011;68451;49.510;6.026;2023-07-20T05:10:20;5.40;;;2.90;;
79052;SDS011;68451;49.510;6.026;2023-07-20T05:12:45;6.80;;;3.15;;
79052;SDS011;68451;49.510;6.026;2023-07-20T05:15:11;5.90;;;3.35;;
79052;SDS011;68451;49.510;6.026;2023-07-20T05:17:38;5.68;;;3.65;;
79052;SDS011;68451;49.510;6.026;2023-07-20T05:20:04;5.90;;;3.33;;
79052;SDS011;68451;49.510;6.026;2023-07-20T05:22:30;7.30;;;3.92;;
79052;SDS011;68451;49.510;6.026;2023-07-20T05:24:55;9.15;;;3.05;;
79052;SDS011;68451;49.510;6.026;2023-07-20T05:27:21;6.20;;;2.90;;
79052;SDS011;68451;49.510;6.026;2023-07-20T05:29:46;3.92;;;2.47;;
79052;SDS011;68451;49.510;6.026;2023-07-20T05:32:15;4.55;;;3.03;;
79052;SDS011;68451;49.510;6.026;2023-07-20T05:34:40;8.07;;;2.90;;
79052;SDS011;68451;49.510;6.026;2023-07-20T05:37:05;5.43;;;2.83;;
79052;SDS011;68451;49.510;6.026;2023-07-20T05:39:34;4.72;;;2.60;;
79052;SDS011;68451;49.510;6.026;2023-07-20T05:41:59;9.68;;;3.22;;
79052;SDS011;68451;49.510;6.026;2023-07-20T05:44:25;6.18;;;3.03;;
79052;SDS011;68451;49.510;6.026;2023-07-20T05:46:50;4.82;;;2.72;;
79052;SDS011;68451;49.510;6.026;2023-07-20T05:49:16;4.85;;;2.53;;
79052;SDS011;68451;49.510;6.026;2023-07-20T05:51:41;5.72;;;2.85;;
79052;SDS011;68451;49.510;6.026;2023-07-20T05:54:07;8.73;;;2.55;;
79052;SDS011;68451;49.510;6.026;2023-07-20T05:56:33;5.55;;;2.42;;
79052;SDS011;68451;49.510;6.026;2023-07-20T05:58:58;5.40;;;2.38;;
79052;SDS011;68451;49.510;6.026;2023-07-20T06:01:24;4.80;;;3.22;;
79052;SDS011;68451;49.510;6.026;2023-07-20T06:03:52;12.50;;;3.35;;
79052;SDS011;68451;49.510;6.026;2023-07-20T06:06:18;7.03;;;3.20;;
79052;SDS011;68451;49.510;6.026;2023-07-20T06:08:45;5.72;;;4.22;;
79052;SDS011;68451;49.510;6.026;2023-07-20T06:11:11;5.63;;;3.63;;
79052;SDS011;68451;49.510;6.026;2023-07-20T06:13:37;7.50;;;4.43;;
79052;SDS011;68451;49.510;6.026;2023-07-20T06:16:03;13.55;;;5.03;;
79052;SDS011;68451;49.510;6.026;2023-07-20T06:18:29;7.10;;;4.32;;
79052;SDS011;68451;49.510;6.026;2023-07-20T06:20:55;8.10;;;3.90;;
79052;SDS011;68451;49.510;6.026;2023-07-20T06:23:21;7.25;;;3.72;;
79052;SDS011;68451;49.510;6.026;2023-07-20T06:25:47;11.30;;;4.70;;
79052;SDS011;68451;49.510;6.026;2023-07-20T06:28:13;7.28;;;4.75;;
79052;SDS011;68451;49.510;6.026;2023-07-20T06:30:40;7.95;;;4.65;;
79052;SDS011;68451;49.510;6.026;2023-07-20T06:33:06;7.78;;;4.70;;
79052;SDS011;68451;49.510;6.026;2023-07-20T06:35:32;8.13;;;3.90;;
79052;SDS011;68451;49.510;6.026;2023-07-20T06:37:58;7.30;;;4.10;;
79052;SDS011;68451;49.510;6.026;2023-07-20T06:40:25;5.82;;;4.15;;
79052;SDS011;68451;49.510;6.026;2023-07-20T06:42:51;6.38;;;4.10;;
79052;SDS011;68451;49.510;6.026;2023-07-20T06:45:16;7.18;;;4.18;;
79052;SDS011;68451;49.510;6.026;2023-07-20T06:47:42;9.32;;;5.00;;
79052;SDS011;68451;49.510;6.026;2023-07-20T06:50:08;9.95;;;4.50;;
79052;SDS011;68451;49.510;6.026;2023-07-20T06:52:35;8.63;;;5.28;;
79052;SDS011;68451;49.510;6.026;2023-07-20T06:55:01;6.22;;;3.90;;
79052;SDS011;68451;49.510;6.026;2023-07-20T06:57:26;9.07;;;5.10;;
79052;SDS011;68451;49.510;6.026;2023-07-20T06:59:52;7.20;;;5.15;;
79052;SDS011;68451;49.510;6.026;2023-07-20T07:02:18;10.63;;;6.47;;
79052;SDS011;68451;49.510;6.026;2023-07-20T07:04:45;8.55;;;5.25;;
79052;SDS011;68451;49.510;6.026;2023-07-20T07:07:13;9.05;;;7.15;;
79052;SDS011;68451;49.510;6.026;2023-07-20T07:09:40;9.30;;;5.32;;
79052;SDS011;68451;49.510;6.026;2023-07-20T07:12:06;7.05;;;4.90;;
79052;SDS011;68451;49.510;6.026;2023-07-20T07:14:32;5.70;;;3.78;;
79052;SDS011;68451;49.510;6.026;2023-07-20T07:16:58;7.97;;;5.15;;
79052;SDS011;68451;49.510;6.026;2023-07-20T07:19:24;7.50;;;5.55;;
79052;SDS011;68451;49.510;6.026;2023-07-20T07:21:49;7.15;;;5.07;;
79052;SDS011;68451;49.510;6.026;2023-07-20T07:24:15;8.15;;;5.40;;
79052;SDS011;68451;49.510;6.026;2023-07-20T07:26:41;10.20;;;5.10;;
79052;SDS011;68451;49.510;6.026;2023-07-20T07:29:06;9.25;;;6.25;;
79052;SDS011;68451;49.510;6.026;2023-07-20T07:31:33;12.50;;;5.78;;
79052;SDS011;68451;49.510;6.026;2023-07-20T07:34:00;10.35;;;8.05;;
79052;SDS011;68451;49.510;6.026;2023-07-20T07:36:25;10.93;;;6.80;;
79052;SDS011;68451;49.510;6.026;2023-07-20T07:38:51;6.40;;;5.35;;
79052;SDS011;68451;49.510;6.026;2023-07-20T07:41:16;12.52;;;6.85;;
79052;SDS011;68451;49.510;6.026;2023-07-20T07:43:42;14.27;;;6.88;;
79052;SDS011;68451;49.510;6.026;2023-07-20T07:46:08;10.43;;;6.30;;
79052;SDS011;68451;49.510;6.026;2023-07-20T07:48:33;6.43;;;5.55;;
79052;SDS011;68451;49.510;6.026;2023-07-20T07:50:59;10.32;;;6.40;;
79052;SDS011;68451;49.510;6.026;2023-07-20T07:53:24;9.63;;;5.80;;
79052;SDS011;68451;49.510;6.026;2023-07-20T07:55:51;9.30;;;5.57;;
79052;SDS011;68451;49.510;6.026;2023-07-20T07:58:17;7.10;;;5.70;;
79052;SDS011;68451;49.510;6.026;2023-07-20T08:00:42;7.40;;;5.85;;
79052;SDS011;68451;49.510;6.026;2023-07-20T08:03:09;7.20;;;5.38;;
79052;SDS011;68451;49.510;6.026;2023-07-20T08:05:35;9.68;;;6.45;;
79052;SDS011;68451;49.510;6.026;2023-07-20T08:08:01;6.80;;;5.28;;
79052;SDS011;68451;49.510;6.026;2023-07-20T08:10:29;7.30;;;5.22;;
79052;SDS011;68451;49.510;6.026;2023-07-20T08:12:55;7.60;;;5.45;;
79052;SDS011;68451;49.510;6.026;2023-07-20T08:15:20;7.38;;;5.45;;
79052;SDS011;68451;49.510;6.026;2023-07-20T08:17:46;11.65;;;5.53;;
79052;SDS011;68451;49.510;6.026;2023-07-20T08:20:13;8.88;;;5.78;;
79052;SDS011;68451;49.510;6.026;2023-07-20T08:22:39;6.22;;;4.57;;
79052;SDS011;68451;49.510;6.026;2023-07-20T08:25:05;9.23;;;5.82;;
79052;SDS011;68451;49.510;6.026;2023-07-20T08:27:31;8.15;;;4.88;;
79052;SDS011;68451;49.510;6.026;2023-07-20T08:29:57;7.63;;;3.92;;
79052;SDS011;68451;49.510;6.026;2023-07-20T08:32:26;8.82;;;4.95;;
79052;SDS011;68451;49.510;6.026;2023-07-20T08:34:52;6.85;;;4.35;;
79052;SDS011;68451;49.510;6.026;2023-07-20T08:37:17;8.27;;;5.07;;
79052;SDS011;68451;49.510;6.026;2023-07-20T08:39:43;11.95;;;5.55;;
79052;SDS011;68451;49.510;6.026;2023-07-20T08:42:09;9.18;;;5.47;;
79052;SDS011;68451;49.510;6.026;2023-07-20T08:44:38;9.75;;;6.32;;
79052;SDS011;68451;49.510;6.026;2023-07-20T08:47:06;9.77;;;5.93;;
79052;SDS011;68451;49.510;6.026;2023-07-20T08:49:32;7.88;;;5.90;;
79052;SDS011;68451;49.510;6.026;2023-07-20T08:51:58;10.30;;;5.55;;
79052;SDS011;68451;49.510;6.026;2023-07-20T08:54:24;6.15;;;4.38;;
79052;SDS011;68451;49.510;6.026;2023-07-20T08:56:54;9.27;;;5.28;;
79052;SDS011;68451;49.510;6.026;2023-07-20T08:59:22;8.10;;;6.13;;
79052;SDS011;68451;49.510;6.026;2023-07-20T09:01:50;7.15;;;4.50;;
79052;SDS011;68451;49.510;6.026;2023-07-20T09:04:19;5.78;;;4.53;;
79052;SDS011;68451;49.510;6.026;2023-07-20T09:06:44;11.48;;;6.60;;
79052;SDS011;68451;49.510;6.026;2023-07-20T09:09:10;13.70;;;6.50;;
79052;SDS011;68451;49.510;6.026;2023-07-20T09:11:37;6.60;;;4.95;;
79052;SDS011;68451;49.510;6.026;2023-07-20T09:14:06;8.25;;;4.90;;
79052;SDS011;68451;49.510;6.026;2023-07-20T09:16:32;6.47;;;5.07;;
79052;SDS011;68451;49.510;6.026;2023-07-20T09:19:03;8.27;;;6.45;;
79052;SDS011;68451;49.510;6.026;2023-07-20T09:21:29;7.93;;;4.60;;
79052;SDS011;68451;49.510;6.026;2023-07-20T09:23:58;6.93;;;4.38;;
79052;SDS011;68451;49.510;6.026;2023-07-20T09:26:24;6.45;;;4.43;;
79052;SDS011;68451;49.510;6.026;2023-07-20T09:28:50;6.53;;;3.40;;
79052;SDS011;68451;49.510;6.026;2023-07-20T09:31:18;6.90;;;3.75;;
79052;SDS011;68451;49.510;6.026;2023-07-20T09:33:45;6.93;;;3.50;;
79052;SDS011;68451;49.510;6.026;2023-07-20T09:36:12;7.40;;;3.50;;
79052;SDS011;68451;49.510;6.026;2023-07-20T09:38:40;6.70;;;4.20;;
79052;SDS011;68451;49.510;6.026;2023-07-20T09:41:07;8.95;;;4.88;;
79052;SDS011;68451;49.510;6.026;2023-07-20T09:43:36;8.20;;;4.65;;
79052;SDS011;68451;49.510;6.026;2023-07-20T09:46:02;6.20;;;4.15;;
79052;SDS011;68451;49.510;6.026;2023-07-20T09:48:27;5.70;;;3.85;;
79052;SDS011;68451;49.510;6.026;2023-07-20T09:50:53;8.80;;;4.43;;
79052;SDS011;68451;49.510;6.026;2023-07-20T09:53:19;10.88;;;4.32;;
79052;SDS011;68451;49.510;6.026;2023-07-20T09:55:45;6.28;;;3.72;;
79052;SDS011;68451;49.510;6.026;2023-07-20T09:58:13;7.28;;;3.83;;
79052;SDS011;68451;49.510;6.026;2023-07-20T10:00:41;8.65;;;4.03;;
79052;SDS011;68451;49.510;6.026;2023-07-20T10:03:13;4.32;;;3.33;;
79052;SDS011;68451;49.510;6.026;2023-07-20T10:08:11;6.70;;;3.60;;
79052;SDS011;68451;49.510;6.026;2023-07-20T10:10:40;8.50;;;3.75;;
79052;SDS011;68451;49.510;6.026;2023-07-20T10:13:09;5.28;;;3.95;;
79052;SDS011;68451;49.510;6.026;2023-07-20T10:18:22;6.82;;;3.50;;
79052;SDS011;68451;49.510;6.026;2023-07-20T10:20:54;6.50;;;3.45;;
79052;SDS011;68451;49.510;6.026;2023-07-20T10:23:20;5.90;;;2.92;;
79052;SDS011;68451;49.510;6.026;2023-07-20T10:25:47;4.55;;;3.35;;
79052;SDS011;68451;49.510;6.026;2023-07-20T10:28:13;5.18;;;3.42;;
79052;SDS011;68451;49.510;6.026;2023-07-20T10:30:39;6.03;;;4.15;;
79052;SDS011;68451;49.510;6.026;2023-07-20T10:33:06;5.70;;;3.20;;
79052;SDS011;68451;49.510;6.026;2023-07-20T10:38:16;5.78;;;3.92;;
79052;SDS011;68451;49.510;6.026;2023-07-20T10:40:41;3.85;;;2.63;;
79052;SDS011;68451;49.510;6.026;2023-07-20T10:43:07;4.32;;;2.80;;
79052;SDS011;68451;49.510;6.026;2023-07-20T10:45:35;4.85;;;2.88;;
79052;SDS011;68451;49.510;6.026;2023-07-20T10:48:06;4.43;;;2.58;;
79052;SDS011;68451;49.510;6.026;2023-07-20T10:53:41;9.00;;;3.50;;
79052;SDS011;68451;49.510;6.026;2023-07-20T10:56:11;5.05;;;2.03;;
79052;SDS011;68451;49.510;6.026;2023-07-20T10:58:38;5.22;;;2.67;;
79052;SDS011;68451;49.510;6.026;2023-07-20T11:01:05;3.10;;;1.92;;
79052;SDS011;68451;49.510;6.026;2023-07-20T11:03:32;3.47;;;2.38;;
79052;SDS011;68451;49.510;6.026;2023-07-20T11:05:59;6.32;;;2.90;;
79052;SDS011;68451;49.510;6.026;2023-07-20T11:08:48;4.63;;;2.65;;
79052;SDS011;68451;49.510;6.026;2023-07-20T11:11:23;5.82;;;2.88;;
79052;SDS011;68451;49.510;6.026;2023-07-20T11:13:54;8.07;;;2.97;;
79052;SDS011;68451;49.510;6.026;2023-07-20T11:19:13;6.72;;;2.20;;
79052;SDS011;68451;49.510;6.026;2023-07-20T11:21:41;4.47;;;2.25;;
79052;SDS011;68451;49.510;6.026;2023-07-20T11:24:08;4.82;;;2.45;;
79052;SDS011;68451;49.510;6.026;2023-07-20T11:29:15;3.83;;;1.73;;
79052;SDS011;68451;49.510;6.026;2023-07-20T11:31:44;4.03;;;1.63;;
79052;SDS011;68451;49.510;6.026;2023-07-20T11:34:11;4.60;;;1.92;;
79052;SDS011;68451;49.510;6.026;2023-07-20T11:36:40;7.53;;;2.42;;
79052;SDS011;68451;49.510;6.026;2023-07-20T11:39:08;3.22;;;2.17;;
79052;SDS011;68451;49.510;6.026;2023-07-20T11:41:35;3.72;;;2.28;;
79052;SDS011;68451;49.510;6.026;2023-07-20T11:44:00;7.43;;;2.58;;
79052;SDS011;68451;49.510;6.026;2023-07-20T11:46:27;4.00;;;2.30;;
79052;SDS011;68451;49.510;6.026;2023-07-20T11:49:00;3.08;;;2.00;;
79052;SDS011;68451;49.510;6.026;2023-07-20T11:51:26;2.90;;;1.80;;
79052;SDS011;68451;49.510;6.026;2023-07-20T11:53:56;2.63;;;1.85;;
79052;SDS011;68451;49.510;6.026;2023-07-20T11:56:25;2.65;;;1.98;;
79052;SDS011;68451;49.510;6.026;2023-07-20T11:58:54;6.93;;;2.10;;
79052;SDS011;68451;49.510;6.026;2023-07-20T12:01:22;4.87;;;2.17;;
79052;SDS011;68451;49.510;6.026;2023-07-20T12:03:48;3.08;;;1.77;;
79052;SDS011;68451;49.510;6.026;2023-07-20T12:06:16;3.95;;;1.75;;
79052;SDS011;68451;49.510;6.026;2023-07-20T12:08:43;4.25;;;2.13;;
79052;SDS011;68451;49.510;6.026;2023-07-20T12:11:09;3.20;;;2.63;;
79052;SDS011;68451;49.510;6.026;2023-07-20T12:13:39;3.58;;;1.98;;
79052;SDS011;68451;49.510;6.026;2023-07-20T12:16:14;2.60;;;2.00;;
79052;SDS011;68451;49.510;6.026;2023-07-20T12:18:41;5.55;;;2.20;;
79052;SDS011;68451;49.510;6.026;2023-07-20T12:21:07;4.47;;;1.95;;
79052;SDS011;68451;49.510;6.026;2023-07-20T12:23:37;2.08;;;1.67;;
79052;SDS011;68451;49.510;6.026;2023-07-20T12:26:07;3.53;;;1.60;;
79052;SDS011;68451;49.510;6.026;2023-07-20T12:28:40;4.57;;;2.70;;
79052;SDS011;68451;49.510;6.026;2023-07-20T12:31:07;2.42;;;2.00;;
79052;SDS011;68451;49.510;6.026;2023-07-20T12:33:34;2.47;;;1.60;;
79052;SDS011;68451;49.510;6.026;2023-07-20T12:36:00;5.05;;;2.50;;
79052;SDS011;68451;49.510;6.026;2023-07-20T12:38:26;1.83;;;1.40;;
79052;SDS011;68451;49.510;6.026;2023-07-20T12:40:53;2.55;;;1.58;;
79052;SDS011;68451;49.510;6.026;2023-07-20T12:43:20;9.02;;;1.77;;
79052;SDS011;68451;49.510;6.026;2023-07-20T12:45:46;2.35;;;1.90;;
79052;SDS011;68451;49.510;6.026;2023-07-20T12:48:12;2.22;;;1.58;;
79052;SDS011;68451;49.510;6.026;2023-07-20T12:50:39;2.63;;;1.50;;
79052;SDS011;68451;49.510;6.026;2023-07-20T12:53:04;5.47;;;1.80;;
79052;SDS011;68451;49.510;6.026;2023-07-20T12:55:30;2.38;;;1.45;;
79052;SDS011;68451;49.510;6.026;2023-07-20T12:57:56;2.53;;;1.70;;
79052;SDS011;68451;49.510;6.026;2023-07-20T13:00:22;4.03;;;2.78;;
79052;SDS011;68451;49.510;6.026;2023-07-20T13:02:48;4.28;;;2.33;;
79052;SDS011;68451;49.510;6.026;2023-07-20T13:05:14;3.35;;;2.00;;
79052;SDS011;68451;49.510;6.026;2023-07-20T13:07:42;3.35;;;1.70;;
79052;SDS011;68451;49.510;6.026;2023-07-20T13:10:08;4.25;;;1.92;;
79052;SDS011;68451;49.510;6.026;2023-07-20T13:12:35;4.55;;;2.00;;
79052;SDS011;68451;49.510;6.026;2023-07-20T13:15:02;3.70;;;1.73;;
79052;SDS011;68451;49.510;6.026;2023-07-20T13:17:31;4.90;;;2.65;;
79052;SDS011;68451;49.510;6.026;2023-07-20T13:19:57;1.85;;;1.52;;
79052;SDS011;68451;49.510;6.026;2023-07-20T13:22:22;4.32;;;2.45;;
79052;SDS011;68451;49.510;6.026;2023-07-20T13:24:48;8.57;;;2.35;;
79052;SDS011;68451;49.510;6.026;2023-07-20T13:27:16;4.97;;;2.00;;
79052;SDS011;68451;49.510;6.026;2023-07-20T13:29:43;2.67;;;1.80;;
79052;SDS011;68451;49.510;6.026;2023-07-20T13:32:09;2.72;;;1.60;;
79052;SDS011;68451;49.510;6.026;2023-07-20T13:34:35;2.10;;;1.70;;
79052;SDS011;68451;49.510;6.026;2023-07-20T13:37:01;2.50;;;1.42;;
79052;SDS011;68451;49.510;6.026;2023-07-20T13:39:27;2.33;;;1.52;;
79052;SDS011;68451;49.510;6.026;2023-07-20T13:41:53;3.50;;;1.80;;
79052;SDS011;68451;49.510;6.026;2023-07-20T13:44:19;3.08;;;2.00;;
79052;SDS011;68451;49.510;6.026;2023-07-20T13:46:46;3.85;;;1.73;;
79052;SDS011;68451;49.510;6.026;2023-07-20T13:49:12;3.25;;;2.15;;
79052;SDS011;68451;49.510;6.026;2023-07-20T13:51:37;4.75;;;1.90;;
79052;SDS011;68451;49.510;6.026;2023-07-20T13:54:03;2.22;;;1.60;;
79052;SDS011;68451;49.510;6.026;2023-07-20T13:56:29;2.75;;;1.52;;
79052;SDS011;68451;49.510;6.026;2023-07-20T13:58:54;2.97;;;1.42;;
79052;SDS011;68451;49.510;6.026;2023-07-20T14:01:20;2.75;;;1.30;;
79052;SDS011;68451;49.510;6.026;2023-07-20T14:03:48;2.25;;;1.13;;
79052;SDS011;68451;49.510;6.026;2023-07-20T14:06:14;2.38;;;1.48;;
79052;SDS011;68451;49.510;6.026;2023-07-20T14:08:40;2.33;;;1.75;;
79052;SDS011;68451;49.510;6.026;2023-07-20T14:11:06;2.58;;;1.50;;
79052;SDS011;68451;49.510;6.026;2023-07-20T14:13:31;3.67;;;1.52;;
79052;SDS011;68451;49.510;6.026;2023-07-20T14:15:57;2.72;;;1.30;;
79052;SDS011;68451;49.510;6.026;2023-07-20T14:18:22;2.38;;;1.20;;
79052;SDS011;68451;49.510;6.026;2023-07-20T14:20:48;2.47;;;1.50;;
79052;SDS011;68451;49.510;6.026;2023-07-20T14:23:14;2.97;;;1.60;;
79052;SDS011;68451;49.510;6.026;2023-07-20T14:25:41;3.33;;;1.45;;
79052;SDS011;68451;49.510;6.026;2023-07-20T14:28:07;2.70;;;1.70;;
79052;SDS011;68451;49.510;6.026;2023-07-20T14:30:32;1.77;;;1.42;;
79052;SDS011;68451;49.510;6.026;2023-07-20T14:32:58;1.60;;;1.30;;
79052;SDS011;68451;49.510;6.026;2023-07-20T14:35:24;2.13;;;1.38;;
79052;SDS011;68451;49.510;6.026;2023-07-20T14:37:49;2.40;;;1.35;;
79052;SDS011;68451;49.510;6.026;2023-07-20T14:40:16;1.38;;;1.27;;
79052;SDS011;68451;49.510;6.026;2023-07-20T14:42:44;3.15;;;1.60;;
79052;SDS011;68451;49.510;6.026;2023-07-20T14:45:09;3.55;;;1.63;;
79052;SDS011;68451;49.510;6.026;2023-07-20T14:47:35;4.43;;;2.03;;
79052;SDS011;68451;49.510;6.026;2023-07-20T14:50:01;2.78;;;1.70;;
79052;SDS011;68451;49.510;6.026;2023-07-20T14:52:27;3.45;;;1.48;;
79052;SDS011;68451;49.510;6.026;2023-07-20T14:54:53;3.05;;;1.70;;
79052;SDS011;68451;49.510;6.026;2023-07-20T14:57:20;1.85;;;1.33;;
79052;SDS011;68451;49.510;6.026;2023-07-20T14:59:49;2.85;;;1.40;;
79052;SDS011;68451;49.510;6.026;2023-07-20T15:02:16;2.15;;;1.30;;
79052;SDS011;68451;49.510;6.026;2023-07-20T15:04:45;2.45;;;1.55;;
79052;SDS011;68451;49.510;6.026;2023-07-20T15:07:12;2.40;;;1.63;;
79052;SDS011;68451;49.510;6.026;2023-07-20T15:09:38;3.08;;;1.52;;